sensor_id;sensor_type;location;lat;lon;timestamp;pressure;altitude;pressure_sealevel;temperature;humidity
77537;BME280;67783;51.656;16.106;2023-04-23T00:00:21;101100.57;;;14.91;42.53
77537;BME280;67783;51.656;16.106;2023-04-23T00:03:30;101094.69;;;14.86;42.81
77537;BME280;67783;51.656;16.106;2023-04-23T00:06:36;101090.66;;;14.80;44.17
77537;BME280;67783;51.656;16.106;2023-04-23T00:09:39;101091.04;;;14.75;42.99
77537;BME280;67783;51.656;16.106;2023-04-23T00:12:42;101081.28;;;14.63;43.81
77537;BME280;67783;51.656;16.106;2023-04-23T00:15:44;101077.38;;;14.56;43.51
77537;BME280;67783;51.656;16.106;2023-04-23T00:18:46;101074.73;;;14.45;44.01
77537;BME280;67783;51.656;16.106;2023-04-23T00:21:54;101076.47;;;14.35;46.31
77537;BME280;67783;51.656;16.106;2023-04-23T00:24:55;101080.74;;;14.26;44.51
77537;BME280;67783;51.656;16.106;2023-04-23T00:27:57;101071.83;;;14.15;45.65
77537;BME280;67783;51.656;16.106;2023-04-23T00:30:58;101071.60;;;14.07;44.87
77537;BME280;67783;51.656;16.106;2023-04-23T00:34:00;101072.23;;;13.99;45.77
77537;BME280;67783;51.656;16.106;2023-04-23T00:37:01;101074.43;;;13.94;45.19
77537;BME280;67783;51.656;16.106;2023-04-23T00:40:08;101070.38;;;13.88;45.41
77537;BME280;67783;51.656;16.106;2023-04-23T00:43:13;101067.34;;;13.82;47.67
77537;BME280;67783;51.656;16.106;2023-04-23T00:46:16;101069.27;;;13.80;45.62
77537;BME280;67783;51.656;16.106;2023-04-23T00:49:18;101057.90;;;13.76;46.17
77537;BME280;67783;51.656;16.106;2023-04-23T00:52:21;101054.95;;;13.79;45.49
77537;BME280;67783;51.656;16.106;2023-04-23T00:55:23;101055.95;;;13.78;45.98
77537;BME280;67783;51.656;16.106;2023-04-23T00:58:33;101057.18;;;13.74;47.86
77537;BME280;67783;51.656;16.106;2023-04-23T01:01:35;101055.45;;;13.73;45.82
77537;BME280;67783;51.656;16.106;2023-04-23T01:04:37;101055.93;;;13.67;46.69
77537;BME280;67783;51.656;16.106;2023-04-23T01:07:43;101051.92;;;13.62;46.68
77537;BME280;67783;51.656;16.106;2023-04-23T01:10:46;101050.82;;;13.53;46.65
77537;BME280;67783;51.656;16.106;2023-04-23T01:13:54;101045.18;;;13.45;49.40
77537;BME280;67783;51.656;16.106;2023-04-23T01:16:56;101045.65;;;13.39;47.47
77537;BME280;67783;51.656;16.106;2023-04-23T01:19:59;101043.57;;;13.31;47.66
77537;BME280;67783;51.656;16.106;2023-04-23T01:23:04;101042.70;;;13.31;46.95
77537;BME280;67783;51.656;16.106;2023-04-23T01:26:05;101045.65;;;13.28;47.42
77537;BME280;67783;51.656;16.106;2023-04-23T01:29:15;101043.32;;;13.23;49.89
77537;BME280;67783;51.656;16.106;2023-04-23T01:32:16;101045.90;;;13.25;47.29
77537;BME280;67783;51.656;16.106;2023-04-23T01:35:19;101039.76;;;13.23;48.19
77537;BME280;67783;51.656;16.106;2023-04-23T01:38:21;101038.04;;;13.22;47.37
77537;BME280;67783;51.656;16.106;2023-04-23T01:41:24;101033.87;;;13.18;48.36
77537;BME280;67783;51.656;16.106;2023-04-23T01:44:35;101035.09;;;13.14;50.44
77537;BME280;67783;51.656;16.106;2023-04-23T01:47:37;101036.92;;;13.13;47.77
77537;BME280;67783;51.656;16.106;2023-04-23T01:50:39;101045.24;;;13.10;48.72
77537;BME280;67783;51.656;16.106;2023-04-23T01:53:41;101030.88;;;13.10;47.84
77537;BME280;67783;51.656;16.106;2023-04-23T01:56:43;101041.04;;;13.06;48.36
77537;BME280;67783;51.656;16.106;2023-04-23T01:59:44;101042.88;;;13.06;47.94
77537;BME280;67783;51.656;16.106;2023-04-23T02:02:46;101037.98;;;13.00;48.30
77537;BME280;67783;51.656;16.106;2023-04-23T02:05:53;101033.81;;;12.95;50.93
77537;BME280;67783;51.656;16.106;2023-04-23T02:08:55;101038.69;;;12.90;48.63
77537;BME280;67783;51.656;16.106;2023-04-23T02:11:57;101026.55;;;12.85;49.20
77537;BME280;67783;51.656;16.106;2023-04-23T02:14:58;101025.69;;;12.84;48.54
77537;BME280;67783;51.656;16.106;2023-04-23T02:18:00;101024.97;;;12.82;49.02
77537;BME280;67783;51.656;16.106;2023-04-23T02:21:11;101017.36;;;12.76;51.67
77537;BME280;67783;51.656;16.106;2023-04-23T02:24:13;101018.57;;;12.72;49.04
77537;BME280;67783;51.656;16.106;2023-04-23T02:27:14;101014.29;;;12.70;49.90
77537;BME280;67783;51.656;16.106;2023-04-23T02:30:19;101018.81;;;12.69;49.00
77537;BME280;67783;51.656;16.106;2023-04-23T02:33:22;101009.98;;;12.67;49.37
77537;BME280;67783;51.656;16.106;2023-04-23T02:36:32;101009.27;;;12.65;51.72
77537;BME280;67783;51.656;16.106;2023-04-23T02:39:34;101013.67;;;12.66;49.43
77537;BME280;67783;51.656;16.106;2023-04-23T02:42:35;101016.71;;;12.62;50.24
77537;BME280;67783;51.656;16.106;2023-04-23T02:45:37;101010.23;;;12.64;49.31
77537;BME280;67783;51.656;16.106;2023-04-23T02:48:40;101009.72;;;12.59;49.97
77537;BME280;67783;51.656;16.106;2023-04-23T02:51:42;101011.93;;;12.54;49.52
77537;BME280;67783;51.656;16.106;2023-04-23T02:54:43;101007.86;;;12.48;49.88
77537;BME280;67783;51.656;16.106;2023-04-23T02:57:48;101007.24;;;12.45;52.12
77537;BME280;67783;51.656;16.106;2023-04-23T03:00:50;101002.82;;;12.44;49.91
77537;BME280;67783;51.656;16.106;2023-04-23T03:03:51;100997.65;;;12.30;51.63
77537;BME280;67783;51.656;16.106;2023-04-23T03:06:53;101000.69;;;12.25;50.27
77537;BME280;67783;51.656;16.106;2023-04-23T03:09:55;101004.43;;;12.23;50.83
77537;BME280;67783;51.656;16.106;2023-04-23T03:12:57;101001.89;;;12.21;50.33
77537;BME280;67783;51.656;16.106;2023-04-23T03:15:58;100998.67;;;12.16;50.69
77537;BME280;67783;51.656;16.106;2023-04-23T03:19:03;101004.38;;;12.12;53.19
77537;BME280;67783;51.656;16.106;2023-04-23T03:22:05;100999.45;;;12.06;50.88
77537;BME280;67783;51.656;16.106;2023-04-23T03:25:07;101005.74;;;11.93;52.33
77537;BME280;67783;51.656;16.106;2023-04-23T03:28:09;101001.55;;;11.89;51.47
77537;BME280;67783;51.656;16.106;2023-04-23T03:31:10;100994.83;;;11.84;51.86
77537;BME280;67783;51.656;16.106;2023-04-23T03:34:12;100992.25;;;11.82;51.53
77537;BME280;67783;51.656;16.106;2023-04-23T03:37:15;100995.49;;;11.75;51.94
77537;BME280;67783;51.656;16.106;2023-04-23T03:40:20;100994.94;;;11.70;54.79
77537;BME280;67783;51.656;16.106;2023-04-23T03:43:22;100990.42;;;11.70;52.06
77537;BME280;67783;51.656;16.106;2023-04-23T03:46:24;101000.10;;;11.60;53.58
77537;BME280;67783;51.656;16.106;2023-04-23T03:49:25;100991.33;;;11.58;52.41
77537;BME280;67783;51.656;16.106;2023-04-23T03:52:27;100991.76;;;11.52;53.22
77537;BME280;67783;51.656;16.106;2023-04-23T03:55:29;100995.08;;;11.43;53.87
77537;BME280;67783;51.656;16.106;2023-04-23T03:58:30;100996.73;;;11.33;53.85
77537;BME280;67783;51.656;16.106;2023-04-23T04:01:35;100989.10;;;11.27;56.20
77537;BME280;67783;51.656;16.106;2023-04-23T04:04:37;100986.85;;;11.33;53.59
77537;BME280;67783;51.656;16.106;2023-04-23T04:07:39;100988.56;;;11.47;54.44
77537;BME280;67783;51.656;16.106;2023-04-23T04:10:41;100981.61;;;11.68;52.89
77537;BME280;67783;51.656;16.106;2023-04-23T04:13:42;100990.82;;;11.89;52.86
77537;BME280;67783;51.656;16.106;2023-04-23T04:16:44;100989.23;;;12.11;52.61
77537;BME280;67783;51.656;16.106;2023-04-23T04:19:46;100988.73;;;12.29;52.29
77537;BME280;67783;51.656;16.106;2023-04-23T04:22:50;100984.52;;;12.49;53.80
77537;BME280;67783;51.656;16.106;2023-04-23T04:25:52;100984.71;;;12.70;51.83
77537;BME280;67783;51.656;16.106;2023-04-23T04:28:58;100983.65;;;12.94;51.95
77537;BME280;67783;51.656;16.106;2023-04-23T04:32:01;100975.40;;;13.20;51.43
77537;BME280;67783;51.656;16.106;2023-04-23T04:35:05;100972.58;;;13.44;51.12
77537;BME280;67783;51.656;16.106;2023-04-23T04:38:11;100976.49;;;13.62;51.72
77537;BME280;67783;51.656;16.106;2023-04-23T04:41:13;100970.10;;;13.74;50.71
77537;BME280;67783;51.656;16.106;2023-04-23T04:44:15;100976.05;;;13.88;50.76
77537;BME280;67783;51.656;16.106;2023-04-23T04:47:18;100972.70;;;14.07;50.36
77537;BME280;67783;51.656;16.106;2023-04-23T04:50:19;100980.75;;;14.18;50.44
77537;BME280;67783;51.656;16.106;2023-04-23T04:53:21;100972.23;;;14.34;49.95
77537;BME280;67783;51.656;16.106;2023-04-23T04:56:23;100969.53;;;14.45;49.86
77537;BME280;67783;51.656;16.106;2023-04-23T04:59:27;100966.30;;;14.51;50.57
77537;BME280;67783;51.656;16.106;2023-04-23T05:02:29;100962.95;;;14.59;49.75
77537;BME280;67783;51.656;16.106;2023-04-23T05:05:31;100969.66;;;14.64;49.88
77537;BME280;67783;51.656;16.106;2023-04-23T05:08:33;100972.45;;;14.74;49.59
77537;BME280;67783;51.656;16.106;2023-04-23T05:11:35;100971.50;;;14.85;49.65
77537;BME280;67783;51.656;16.106;2023-04-23T05:14:36;100971.30;;;14.97;49.25
77537;BME280;67783;51.656;16.106;2023-04-23T05:17:39;100974.38;;;15.13;49.30
77537;BME280;67783;51.656;16.106;2023-04-23T05:20:42;100986.40;;;15.30;49.63
77537;BME280;67783;51.656;16.106;2023-04-23T05:23:44;100977.95;;;15.44;48.95
77537;BME280;67783;51.656;16.106;2023-04-23T05:26:45;100979.70;;;15.55;49.18
77537;BME280;67783;51.656;16.106;2023-04-23T05:29:47;100973.08;;;15.68;48.87
77537;BME280;67783;51.656;16.106;2023-04-23T05:32:49;100986.89;;;15.75;49.01
77537;BME280;67783;51.656;16.106;2023-04-23T05:35:50;100976.10;;;15.85;48.83
77537;BME280;67783;51.656;16.106;2023-04-23T05:38:52;100976.38;;;15.91;49.19
77537;BME280;67783;51.656;16.106;2023-04-23T05:41:57;100977.70;;;15.97;50.12
77537;BME280;67783;51.656;16.106;2023-04-23T05:44:59;100976.41;;;16.01;49.42
77537;BME280;67783;51.656;16.106;2023-04-23T05:48:00;100973.30;;;16.05;49.55
77537;BME280;67783;51.656;16.106;2023-04-23T05:51:02;100982.13;;;16.17;49.07
77537;BME280;67783;51.656;16.106;2023-04-23T05:54:04;100979.70;;;16.24;49.24
77537;BME280;67783;51.656;16.106;2023-04-23T05:57:06;100976.58;;;16.28;49.24
77537;BME280;67783;51.656;16.106;2023-04-23T06:00:08;100979.28;;;16.28;49.45
77537;BME280;67783;51.656;16.106;2023-04-23T06:03:12;100982.58;;;16.22;50.89
77537;BME280;67783;51.656;16.106;2023-04-23T06:06:14;100983.27;;;16.24;49.70
77537;BME280;67783;51.656;16.106;2023-04-23T06:09:16;100976.17;;;16.23;50.28
77537;BME280;67783;51.656;16.106;2023-04-23T06:12:18;100974.16;;;16.25;49.76
77537;BME280;67783;51.656;16.106;2023-04-23T06:15:19;100969.34;;;16.19;50.72
77537;BME280;67783;51.656;16.106;2023-04-23T06:18:21;100968.76;;;16.25;50.04
77537;BME280;67783;51.656;16.106;2023-04-23T06:21:23;100967.18;;;16.32;50.68
77537;BME280;67783;51.656;16.106;2023-04-23T06:24:27;100972.33;;;16.35;51.78
77537;BME280;67783;51.656;16.106;2023-04-23T06:27:29;100971.45;;;16.44;50.99
77537;BME280;67783;51.656;16.106;2023-04-23T06:30:32;100961.65;;;16.43;51.78
77537;BME280;67783;51.656;16.106;2023-04-23T06:33:34;100955.35;;;16.52;50.87
77537;BME280;67783;51.656;16.106;2023-04-23T06:36:37;100966.64;;;16.67;50.53
77537;BME280;67783;51.656;16.106;2023-04-23T06:39:48;100962.77;;;16.79;50.67
77537;BME280;67783;51.656;16.106;2023-04-23T06:42:50;100967.88;;;16.92;49.86
77537;BME280;67783;51.656;16.106;2023-04-23T06:45:52;100968.30;;;16.97;50.25
77537;BME280;67783;51.656;16.106;2023-04-23T06:48:54;100963.27;;;17.02;50.28
77537;BME280;67783;51.656;16.106;2023-04-23T06:51:56;100962.15;;;17.04;50.42
77537;BME280;67783;51.656;16.106;2023-04-23T06:54:57;100951.57;;;17.11;50.52
77537;BME280;67783;51.656;16.106;2023-04-23T06:57:59;100954.12;;;17.22;50.38
77537;BME280;67783;51.656;16.106;2023-04-23T07:01:04;100950.38;;;17.23;51.12
77537;BME280;67783;51.656;16.106;2023-04-23T07:04:07;100947.20;;;17.37;50.35
77537;BME280;67783;51.656;16.106;2023-04-23T07:07:09;100943.73;;;17.45;50.68
77537;BME280;67783;51.656;16.106;2023-04-23T07:10:11;100941.43;;;17.60;50.01
77537;BME280;67783;51.656;16.106;2023-04-23T07:13:15;100935.92;;;17.69;50.19
77537;BME280;67783;51.656;16.106;2023-04-23T07:16:25;100939.59;;;17.78;51.02
77537;BME280;67783;51.656;16.106;2023-04-23T07:19:33;100925.20;;;17.95;50.05
77537;BME280;67783;51.656;16.106;2023-04-23T07:22:34;100922.26;;;18.06;50.08
77537;BME280;67783;51.656;16.106;2023-04-23T07:25:36;100913.27;;;18.23;49.85
77537;BME280;67783;51.656;16.106;2023-04-23T07:28:38;100906.30;;;18.38;49.62
77537;BME280;67783;51.656;16.106;2023-04-23T07:31:45;100912.57;;;18.57;49.49
77537;BME280;67783;51.656;16.106;2023-04-23T07:34:48;100923.54;;;18.73;48.97
77537;BME280;67783;51.656;16.106;2023-04-23T07:37:49;100922.98;;;18.87;48.68
77537;BME280;67783;51.656;16.106;2023-04-23T07:40:57;100915.08;;;19.02;48.43
77537;BME280;67783;51.656;16.106;2023-04-23T07:43:59;100912.11;;;19.13;48.17
77537;BME280;67783;51.656;16.106;2023-04-23T07:47:06;100919.82;;;19.25;47.88
77537;BME280;67783;51.656;16.106;2023-04-23T07:50:08;100918.18;;;19.41;47.97
77537;BME280;67783;51.656;16.106;2023-04-23T07:53:10;100912.84;;;19.57;47.88
77537;BME280;67783;51.656;16.106;2023-04-23T07:56:12;100913.20;;;19.62;47.65
77537;BME280;67783;51.656;16.106;2023-04-23T07:59:14;100899.96;;;19.67;47.53
77537;BME280;67783;51.656;16.106;2023-04-23T08:02:26;100903.38;;;19.77;47.72
77537;BME280;67783;51.656;16.106;2023-04-23T08:05:28;100901.55;;;19.94;47.71
77537;BME280;67783;51.656;16.106;2023-04-23T08:08:30;100902.58;;;20.09;47.57
77537;BME280;67783;51.656;16.106;2023-04-23T08:11:34;100894.96;;;20.28;47.34
77537;BME280;67783;51.656;16.106;2023-04-23T08:14:36;100895.31;;;20.42;46.88
77537;BME280;67783;51.656;16.106;2023-04-23T08:17:47;100894.63;;;20.56;46.26
77537;BME280;67783;51.656;16.106;2023-04-23T08:20:49;100898.20;;;20.72;46.58
77537;BME280;67783;51.656;16.106;2023-04-23T08:23:50;100896.65;;;20.86;46.07
77537;BME280;67783;51.656;16.106;2023-04-23T08:26:52;100890.47;;;21.00;46.25
77537;BME280;67783;51.656;16.106;2023-04-23T08:29:53;100889.10;;;21.12;46.10
77537;BME280;67783;51.656;16.106;2023-04-23T08:32:56;100890.09;;;21.28;46.04
77537;BME280;67783;51.656;16.106;2023-04-23T08:35:57;100883.84;;;21.50;46.07
77537;BME280;67783;51.656;16.106;2023-04-23T08:39:03;100873.15;;;21.71;45.16
77537;BME280;67783;51.656;16.106;2023-04-23T08:42:20;100873.42;;;21.84;45.55
77537;BME280;67783;51.656;16.106;2023-04-23T08:45:22;100891.05;;;22.04;45.18
77537;BME280;67783;51.656;16.106;2023-04-23T08:48:29;100883.16;;;22.32;42.83
77537;BME280;67783;51.656;16.106;2023-04-23T08:51:36;100880.04;;;22.58;43.43
77537;BME280;67783;51.656;16.106;2023-04-23T08:54:40;100892.46;;;22.83;41.90
77537;BME280;67783;51.656;16.106;2023-04-23T08:57:42;100885.88;;;22.92;42.96
77537;BME280;67783;51.656;16.106;2023-04-23T09:00:47;100889.94;;;22.96;43.23
77537;BME280;67783;51.656;16.106;2023-04-23T09:03:51;100891.91;;;23.03;41.32
77537;BME280;67783;51.656;16.106;2023-04-23T09:06:54;100884.67;;;23.10;42.77
77537;BME280;67783;51.656;16.106;2023-04-23T09:09:57;100891.76;;;23.19;42.29
77537;BME280;67783;51.656;16.106;2023-04-23T09:12:59;100891.54;;;23.20;42.68
77537;BME280;67783;51.656;16.106;2023-04-23T09:16:01;100891.91;;;23.32;42.52
77537;BME280;67783;51.656;16.106;2023-04-23T09:19:11;100887.75;;;23.36;41.12
77537;BME280;67783;51.656;16.106;2023-04-23T09:22:13;100891.09;;;23.46;42.29
77537;BME280;67783;51.656;16.106;2023-04-23T09:25:17;100892.23;;;23.52;42.04
77537;BME280;67783;51.656;16.106;2023-04-23T09:28:20;100886.43;;;23.61;42.40
77537;BME280;67783;51.656;16.106;2023-04-23T09:31:24;100885.45;;;23.83;41.62
77537;BME280;67783;51.656;16.106;2023-04-23T09:34:34;100881.73;;;23.91;40.29
77537;BME280;67783;51.656;16.106;2023-04-23T09:37:46;100874.25;;;24.00;41.21
77537;BME280;67783;51.656;16.106;2023-04-23T09:40:58;100869.74;;;23.92;40.94
77537;BME280;67783;51.656;16.106;2023-04-23T09:44:01;100875.55;;;24.04;39.29
77537;BME280;67783;51.656;16.106;2023-04-23T09:47:07;100868.23;;;24.25;40.50
77537;BME280;67783;51.656;16.106;2023-04-23T09:50:15;100868.40;;;24.45;39.46
77537;BME280;67783;51.656;16.106;2023-04-23T09:53:27;100867.21;;;24.54;36.36
77537;BME280;67783;51.656;16.106;2023-04-23T09:56:30;100866.47;;;24.67;39.20
77537;BME280;67783;51.656;16.106;2023-04-23T09:59:35;100868.99;;;24.68;38.38
77537;BME280;67783;51.656;16.106;2023-04-23T10:02:37;100872.81;;;24.67;38.73
77537;BME280;67783;51.656;16.106;2023-04-23T10:05:41;100881.55;;;24.56;38.44
77537;BME280;67783;51.656;16.106;2023-04-23T10:08:47;100886.54;;;24.46;37.16
77537;BME280;67783;51.656;16.106;2023-04-23T10:11:54;100879.05;;;24.33;38.89
77537;BME280;67783;51.656;16.106;2023-04-23T10:14:56;100890.06;;;24.19;38.72
77537;BME280;67783;51.656;16.106;2023-04-23T10:17:59;100880.27;;;24.10;39.11
77537;BME280;67783;51.656;16.106;2023-04-23T10:21:05;100886.18;;;23.92;39.13
77537;BME280;67783;51.656;16.106;2023-04-23T10:24:09;100883.95;;;23.81;37.92
77537;BME280;67783;51.656;16.106;2023-04-23T10:27:13;100877.07;;;23.70;39.46
77537;BME280;67783;51.656;16.106;2023-04-23T10:30:16;100875.95;;;23.65;39.11
77537;BME280;67783;51.656;16.106;2023-04-23T10:33:18;100875.13;;;23.64;39.37
77537;BME280;67783;51.656;16.106;2023-04-23T10:36:22;100879.36;;;23.67;39.32
77537;BME280;67783;51.656;16.106;2023-04-23T10:39:32;100875.19;;;23.71;38.16
77537;BME280;67783;51.656;16.106;2023-04-23T10:42:35;100878.66;;;23.79;39.39
77537;BME280;67783;51.656;16.106;2023-04-23T10:45:36;100871.30;;;23.80;38.96
77537;BME280;67783;51.656;16.106;2023-04-23T10:55:05;100882.19;;;23.95;38.80
77537;BME280;67783;51.656;16.106;2023-04-23T10:58:12;100890.86;;;23.98;39.32
77537;BME280;67783;51.656;16.106;2023-04-23T11:01:13;100890.98;;;23.90;38.82
77537;BME280;67783;51.656;16.106;2023-04-23T11:04:24;100882.89;;;23.82;37.69
77537;BME280;67783;51.656;16.106;2023-04-23T11:07:32;100882.24;;;23.80;38.64
77537;BME280;67783;51.656;16.106;2023-04-23T11:13:52;100898.56;;;23.88;36.89
77537;BME280;67783;51.656;16.106;2023-04-23T11:16:54;100893.48;;;23.85;38.26
77537;BME280;67783;51.656;16.106;2023-04-23T11:26:30;100893.70;;;24.05;38.09
77537;BME280;67783;51.656;16.106;2023-04-23T11:29:31;100891.23;;;24.10;37.73
77537;BME280;67783;51.656;16.106;2023-04-23T11:32:47;100891.59;;;24.07;35.67
77537;BME280;67783;51.656;16.106;2023-04-23T11:35:49;100891.67;;;24.13;37.56
77537;BME280;67783;51.656;16.106;2023-04-23T11:38:55;100887.98;;;24.21;37.34
77537;BME280;67783;51.656;16.106;2023-04-23T11:41:56;100888.71;;;24.29;37.40
77537;BME280;67783;51.656;16.106;2023-04-23T11:45:05;100878.84;;;24.35;37.01
77537;BME280;67783;51.656;16.106;2023-04-23T11:48:09;100890.05;;;24.40;35.55
77537;BME280;67783;51.656;16.106;2023-04-23T11:51:10;100881.55;;;24.56;37.09
77537;BME280;67783;51.656;16.106;2023-04-23T11:54:13;100885.07;;;24.71;36.64
77537;BME280;67783;51.656;16.106;2023-04-23T11:57:16;100876.70;;;24.79;36.50
77537;BME280;67783;51.656;16.106;2023-04-23T12:00:23;100881.77;;;24.82;36.50
77537;BME280;67783;51.656;16.106;2023-04-23T12:03:29;100860.15;;;24.94;35.42
77537;BME280;67783;51.656;16.106;2023-04-23T12:06:31;100873.45;;;24.97;36.67
77537;BME280;67783;51.656;16.106;2023-04-23T12:09:32;100876.86;;;24.99;36.13
77537;BME280;67783;51.656;16.106;2023-04-23T12:12:37;100882.75;;;24.96;36.78
77537;BME280;67783;51.656;16.106;2023-04-23T12:15:46;100878.91;;;24.91;36.45
77537;BME280;67783;51.656;16.106;2023-04-23T12:18:53;100884.52;;;24.82;36.06
77537;BME280;67783;51.656;16.106;2023-04-23T12:21:59;100886.37;;;24.75;36.60
77537;BME280;67783;51.656;16.106;2023-04-23T12:25:04;100879.59;;;24.71;36.47
77537;BME280;67783;51.656;16.106;2023-04-23T12:28:22;100879.59;;;24.71;35.14
77537;BME280;67783;51.656;16.106;2023-04-23T12:31:25;100886.73;;;24.72;36.45
77537;BME280;67783;51.656;16.106;2023-04-23T12:34:30;100877.29;;;24.75;36.40
77537;BME280;67783;51.656;16.106;2023-04-23T12:37:35;100875.66;;;24.80;36.63
77537;BME280;67783;51.656;16.106;2023-04-23T12:40:37;100876.95;;;24.85;36.57
77537;BME280;67783;51.656;16.106;2023-04-23T12:43:42;100879.95;;;24.90;35.45
77537;BME280;67783;51.656;16.106;2023-04-23T12:46:54;100879.31;;;24.88;36.23
77537;BME280;67783;51.656;16.106;2023-04-23T12:49:56;100866.11;;;24.76;36.23
77537;BME280;67783;51.656;16.106;2023-04-23T12:53:09;100874.95;;;24.72;35.41
77537;BME280;67783;51.656;16.106;2023-04-23T12:56:10;100874.10;;;24.71;36.39
77537;BME280;67783;51.656;16.106;2023-04-23T12:59:12;100875.92;;;24.64;36.33
77537;BME280;67783;51.656;16.106;2023-04-23T13:02:13;100871.51;;;24.63;36.82
77537;BME280;67783;51.656;16.106;2023-04-23T13:05:15;100879.07;;;24.61;36.85
77537;BME280;67783;51.656;16.106;2023-04-23T13:08:17;100870.84;;;24.61;36.99
77537;BME280;67783;51.656;16.106;2023-04-23T13:11:18;100881.55;;;24.56;37.09
77537;BME280;67783;51.656;16.106;2023-04-23T13:14:23;100878.95;;;24.48;36.43
77537;BME280;67783;51.656;16.106;2023-04-23T13:17:25;100874.28;;;24.42;37.14
77537;BME280;67783;51.656;16.106;2023-04-23T13:20:26;100875.86;;;24.30;37.21
77537;BME280;67783;51.656;16.106;2023-04-23T13:23:28;100881.21;;;24.17;37.62
77537;BME280;67783;51.656;16.106;2023-04-23T13:26:29;100876.80;;;24.01;37.89
77537;BME280;67783;51.656;16.106;2023-04-23T13:29:32;100879.98;;;23.83;38.18
77537;BME280;67783;51.656;16.106;2023-04-23T13:32:34;100889.38;;;23.60;38.45
77537;BME280;67783;51.656;16.106;2023-04-23T13:35:39;100879.47;;;23.44;38.58
77537;BME280;67783;51.656;16.106;2023-04-23T13:38:41;100898.15;;;23.26;38.79
77537;BME280;67783;51.656;16.106;2023-04-23T13:41:43;100884.38;;;23.05;39.34
77537;BME280;67783;51.656;16.106;2023-04-23T13:44:45;100889.09;;;22.96;39.55
77537;BME280;67783;51.656;16.106;2023-04-23T13:47:47;100884.55;;;22.88;40.01
77537;BME280;67783;51.656;16.106;2023-04-23T13:51:00;100889.55;;;22.85;41.00
77537;BME280;67783;51.656;16.106;2023-04-23T13:54:02;100880.88;;;22.81;40.36
77537;BME280;67783;51.656;16.106;2023-04-23T13:57:04;100881.44;;;22.77;40.67
77537;BME280;67783;51.656;16.106;2023-04-23T14:00:07;100873.80;;;22.72;40.57
77537;BME280;67783;51.656;16.106;2023-04-23T14:03:09;100875.85;;;22.70;40.71
77537;BME280;67783;51.656;16.106;2023-04-23T14:06:20;100877.91;;;22.68;41.23
77537;BME280;67783;51.656;16.106;2023-04-23T14:09:21;100875.55;;;22.65;40.82
77537;BME280;67783;51.656;16.106;2023-04-23T14:12:23;100884.09;;;22.62;41.29
77537;BME280;67783;51.656;16.106;2023-04-23T14:15:29;100885.98;;;22.62;41.14
77537;BME280;67783;51.656;16.106;2023-04-23T14:18:31;100886.18;;;22.60;41.35
77537;BME280;67783;51.656;16.106;2023-04-23T14:21:40;100883.62;;;22.59;42.28
77537;BME280;67783;51.656;16.106;2023-04-23T14:24:49;100879.66;;;22.61;41.45
77537;BME280;67783;51.656;16.106;2023-04-23T14:27:54;100879.01;;;22.59;41.62
77537;BME280;67783;51.656;16.106;2023-04-23T14:31:07;100890.31;;;22.56;42.41
77537;BME280;67783;51.656;16.106;2023-04-23T14:34:08;100882.13;;;22.56;41.58
77537;BME280;67783;51.656;16.106;2023-04-23T14:38:15;100881.34;;;22.47;41.55
77537;BME280;67783;51.656;16.106;2023-04-23T14:41:16;100881.21;;;22.41;41.83
77537;BME280;67783;51.656;16.106;2023-04-23T14:44:18;100878.20;;;22.36;41.72
77537;BME280;67783;51.656;16.106;2023-04-23T14:47:19;100875.16;;;22.31;41.96
77537;BME280;67783;51.656;16.106;2023-04-23T14:50:21;100870.90;;;22.28;41.84
77537;BME280;67783;51.656;16.106;2023-04-23T14:53:23;100875.88;;;22.25;41.89
77537;BME280;67783;51.656;16.106;2023-04-23T14:56:29;100877.59;;;22.26;42.82
77537;BME280;67783;51.656;16.106;2023-04-23T14:59:31;100863.39;;;22.30;42.08
77537;BME280;67783;51.656;16.106;2023-04-23T15:02:33;100867.45;;;22.34;42.21
77537;BME280;67783;51.656;16.106;2023-04-23T15:05:37;100866.52;;;22.42;41.92
77537;BME280;67783;51.656;16.106;2023-04-23T15:08:41;100875.33;;;22.52;41.84
77537;BME280;67783;51.656;16.106;2023-04-23T15:11:50;100866.38;;;22.58;41.54
77537;BME280;67783;51.656;16.106;2023-04-23T15:14:53;100863.24;;;22.69;41.43
77537;BME280;67783;51.656;16.106;2023-04-23T15:17:57;100868.13;;;22.74;41.27
77537;BME280;67783;51.656;16.106;2023-04-23T15:20:58;100867.39;;;22.80;41.26
77537;BME280;67783;51.656;16.106;2023-04-23T15:24:04;100856.54;;;22.86;41.30
77537;BME280;67783;51.656;16.106;2023-04-23T15:27:10;100857.21;;;22.88;41.26
77537;BME280;67783;51.656;16.106;2023-04-23T15:30:15;100865.98;;;22.84;41.31
77537;BME280;67783;51.656;16.106;2023-04-23T15:33:16;100859.57;;;22.77;41.48
77537;BME280;67783;51.656;16.106;2023-04-23T15:36:21;100867.48;;;22.72;41.60
77537;BME280;67783;51.656;16.106;2023-04-23T15:39:23;100864.79;;;22.64;41.82
77537;BME280;67783;51.656;16.106;2023-04-23T15:42:31;100863.34;;;22.53;42.55
77537;BME280;67783;51.656;16.106;2023-04-23T15:45:33;100860.13;;;22.49;42.18
77537;BME280;67783;51.656;16.106;2023-04-23T15:48:34;100867.00;;;22.45;42.54
77537;BME280;67783;51.656;16.106;2023-04-23T15:51:36;100864.47;;;22.44;42.44
77537;BME280;67783;51.656;16.106;2023-04-23T15:54:38;100858.02;;;22.37;42.72
77537;BME280;67783;51.656;16.106;2023-04-23T15:57:39;100856.22;;;22.29;42.67
77537;BME280;67783;51.656;16.106;2023-04-23T16:00:41;100860.04;;;22.20;42.72
77537;BME280;67783;51.656;16.106;2023-04-23T16:03:46;100858.61;;;22.09;43.00